Time;durP1;ratioP1;P1;durP2;ratioP2;P2;SDS_P1;SDS_P2;PMS_P1;PMS_P2;Temp;Humidity;BMP_temperature;BMP_pressure;BME280_temperature;BME280_humidity;BME280_pressure;Samples;Min_cycle;Max_cycle;Signal;HPM_P1;HPM_P2
2023/09/04 00:01:07;;;;;;;3.67;1.90;;;;;;;-141.50;100.00;63355.56;5032251;28;20048;-80
2023/09/04 00:03:34;;;;;;;3.92;1.85;;;;;;;-141.50;100.00;63355.56;5015828;28;20049;-81
2023/09/04 00:06:01;;;;;;;2.53;1.80;;;;;;;-141.50;100.00;63355.56;5028703;28;20057;-81
2023/09/04 00:08:27;;;;;;;2.58;1.38;;;;;;;-141.50;100.00;63355.56;5030429;28;20732;-81
2023/09/04 00:10:54;;;;;;;2.28;1.67;;;;;;;-141.50;100.00;63355.56;5029286;28;20057;-81
2023/09/04 00:13:23;;;;;;;3.30;1.63;;;;;;;-141.50;100.00;63355.56;5024218;28;20046;-81
2023/09/04 00:15:55;;;;;;;2.53;1.67;;;;;;;-141.50;100.00;63355.56;5032648;28;20095;-81
2023/09/04 00:18:24;;;;;;;2.80;1.63;;;;;;;-141.50;100.00;63355.56;5030181;28;20041;-81
2023/09/04 00:20:53;;;;;;;2.17;1.48;;;;;;;-141.50;100.00;63355.56;5029189;28;20085;-81
2023/09/04 00:23:21;;;;;;;2.85;1.63;;;;;;;-141.50;100.00;63355.56;5048204;28;20475;-80
2023/09/04 00:25:49;;;;;;;2.30;1.55;;;;;;;-141.50;100.00;63355.56;5057217;28;20049;-80
2023/09/04 00:28:18;;;;;;;2.65;1.70;;;;;;;-141.50;100.00;63355.56;5059159;28;20088;-80
2023/09/04 00:30:46;;;;;;;4.80;1.50;;;;;;;-141.50;100.00;63355.56;5038713;28;20041;-81
2023/09/04 00:33:13;;;;;;;2.47;1.60;;;;;;;-141.50;100.00;63355.56;5032752;28;20042;-79
2023/09/04 00:35:40;;;;;;;2.72;1.65;;;;;;;-141.50;100.00;63355.56;5048360;28;20101;-79
2023/09/04 00:38:07;;;;;;;2.80;1.80;;;;;;;-141.50;100.00;63355.56;5049170;28;20048;-79
2023/09/04 00:40:34;;;;;;;2.95;1.90;;;;;;;-141.50;100.00;63355.56;5049240;28;20121;-79
2023/09/04 00:43:02;;;;;;;2.75;1.58;;;;;;;-141.50;100.00;63355.56;5045750;28;20064;-81
2023/09/04 00:45:29;;;;;;;2.28;1.40;;;;;;;-141.50;100.00;63355.56;5043230;28;20119;-79
2023/09/04 00:47:56;;;;;;;2.83;1.85;;;;;;;-141.50;100.00;63355.56;5060400;28;20044;-81
2023/09/04 00:50:24;;;;;;;3.00;1.90;;;;;;;-141.50;100.00;63355.56;5046968;28;20052;-81
2023/09/04 00:52:59;;;;;;;3.60;1.73;;;;;;;-141.50;100.00;63355.56;5043182;28;20045;-81
2023/09/04 00:55:29;;;;;;;2.40;1.80;;;;;;;-141.50;100.00;63355.56;5031180;28;20049;-81
2023/09/04 00:57:57;;;;;;;2.03;1.48;;;;;;;-141.50;100.00;63355.56;5050805;28;20117;-81
2023/09/04 01:00:27;;;;;;;2.38;1.45;;;;;;;-141.50;100.00;63355.56;5026589;28;20045;-81
2023/09/04 01:02:55;;;;;;;3.75;1.67;;;;;;;-141.50;100.00;63355.56;5044743;28;20072;-81
2023/09/04 01:05:25;;;;;;;2.20;1.35;;;;;;;-141.50;100.00;63355.56;5047408;28;20037;-81
2023/09/04 01:07:53;;;;;;;2.65;1.70;;;;;;;-141.50;100.00;63355.56;5064208;28;20037;-80
2023/09/04 01:10:22;;;;;;;3.72;2.00;;;;;;;-141.50;100.00;63355.56;5054314;28;20037;-82
2023/09/04 01:13:08;;;;;;;4.65;1.50;;;;;;;-141.50;100.00;63355.56;5063556;28;20045;-80
2023/09/04 01:15:35;;;;;;;4.53;1.58;;;;;;;-141.50;100.00;63355.56;5081401;28;20059;-80
2023/09/04 01:18:05;;;;;;;3.65;1.30;;;;;;;-141.50;100.00;63355.56;5067477;28;20065;-81
2023/09/04 01:20:36;;;;;;;2.85;1.80;;;;;;;-141.50;100.00;63355.56;5059875;28;20036;-80
2023/09/04 01:23:03;;;;;;;2.55;1.70;;;;;;;-141.50;100.00;63355.56;5046084;28;20048;-80
2023/09/04 01:25:57;;;;;;;2.92;1.80;;;;;;;-141.50;100.00;63355.56;5048947;28;20064;-80
2023/09/04 01:28:45;;;;;;;2.55;1.67;;;;;;;-141.50;100.00;63355.56;5041567;28;20363;-80
2023/09/04 01:31:32;;;;;;;2.38;1.67;;;;;;;-141.50;100.00;63355.56;5049290;28;20049;-80
2023/09/04 01:34:15;;;;;;;2.45;1.35;;;;;;;-141.50;100.00;63355.56;5052067;28;20080;-80
2023/09/04 01:36:51;;;;;;;3.38;1.80;;;;;;;-141.50;100.00;63355.56;5058495;28;20640;-80
2023/09/04 01:39:21;;;;;;;2.20;1.60;;;;;;;-141.50;100.00;63355.56;5058777;28;20477;-81
2023/09/04 01:41:51;;;;;;;4.25;1.40;;;;;;;-141.50;100.00;63355.56;5056549;28;20041;-81
2023/09/04 01:44:19;;;;;;;2.53;1.60;;;;;;;-141.50;100.00;63355.56;5048101;28;20109;-80
2023/09/04 01:46:57;;;;;;;2.15;1.50;;;;;;;-141.50;100.00;63355.56;5033066;28;20422;-79
2023/09/04 01:49:27;;;;;;;1.98;1.40;;;;;;;-141.50;100.00;63355.56;5047723;28;20045;-79
2023/09/04 01:51:53;;;;;;;2.60;1.70;;;;;;;-141.50;100.00;63355.56;5038919;28;20097;-80
2023/09/04 01:54:40;;;;;;;2.45;1.63;;;;;;;-141.50;100.00;63355.56;5034667;28;20083;-81
2023/09/04 01:57:07;;;;;;;3.05;1.60;;;;;;;-141.50;100.00;63355.56;5041375;28;20048;-79
2023/09/04 01:59:48;;;;;;;2.45;1.38;;;;;;;-141.50;100.00;63355.56;5058484;28;20053;-80
2023/09/04 02:02:15;;;;;;;2.40;1.30;;;;;;;-141.50;100.00;63355.56;5054749;28;20365;-80
2023/09/04 02:04:43;;;;;;;3.00;1.55;;;;;;;-141.50;100.00;63355.56;5036264;28;20091;-80
2023/09/04 02:07:10;;;;;;;3.40;1.83;;;;;;;-141.50;100.00;63355.56;5036102;28;20511;-81
2023/09/04 02:09:37;;;;;;;2.20;1.50;;;;;;;-141.50;100.00;63355.56;5052372;28;20071;-81
2023/09/04 02:12:04;;;;;;;2.83;1.52;;;;;;;-141.50;100.00;63355.56;5058232;28;20076;-80
2023/09/04 02:14:31;;;;;;;3.20;1.30;;;;;;;-141.50;100.00;63355.56;5038928;28;20454;-80
2023/09/04 02:16:58;;;;;;;2.67;1.48;;;;;;;-141.50;100.00;63355.56;5030984;28;20657;-80
2023/09/04 02:19:25;;;;;;;2.72;1.48;;;;;;;-141.50;100.00;63355.56;5016564;28;20095;-81
2023/09/04 02:21:52;;;;;;;2.67;1.63;;;;;;;-141.50;100.00;63355.56;5039704;28;20078;-81
2023/09/04 02:24:19;;;;;;;2.60;1.77;;;;;;;-141.50;100.00;63355.56;5037239;28;20048;-80
2023/09/04 02:26:46;;;;;;;2.47;1.70;;;;;;;-141.50;100.00;63355.56;5036126;28;20187;-81
2023/09/04 02:29:13;;;;;;;2.83;1.38;;;;;;;-141.50;100.00;63355.56;5023522;28;20061;-80
2023/09/04 02:32:00;;;;;;;3.97;1.90;;;;;;;-141.50;100.00;63355.56;5030035;28;20044;-81
2023/09/04 02:34:31;;;;;;;3.03;1.63;;;;;;;-141.50;100.00;63355.56;5027475;28;20044;-80
2023/09/04 02:36:59;;;;;;;3.65;1.77;;;;;;;-141.50;100.00;63355.56;5019106;28;20053;-80
2023/09/04 02:39:25;;;;;;;2.80;1.77;;;;;;;-141.50;100.00;63355.56;5019785;28;20044;-79
2023/09/04 02:41:53;;;;;;;3.05;1.50;;;;;;;-141.50;100.00;63355.56;5030058;28;20105;-78
2023/09/04 02:44:28;;;;;;;2.83;1.67;;;;;;;-141.50;100.00;63355.56;5032109;28;20057;-79
2023/09/04 02:46:54;;;;;;;4.35;1.75;;;;;;;-141.50;100.00;63355.56;5039831;28;20104;-81
2023/09/04 02:49:22;;;;;;;7.10;1.70;;;;;;;-141.50;100.00;63355.56;5022428;28;20045;-79
2023/09/04 02:52:11;;;;;;;3.72;1.73;;;;;;;-141.50;100.00;63355.56;5005792;28;20056;-80
2023/09/04 02:54:38;;;;;;;2.38;1.60;;;;;;;-141.50;100.00;63355.56;5013306;28;20045;-80
2023/09/04 02:57:05;;;;;;;3.75;1.63;;;;;;;-141.50;100.00;63355.56;5037456;28;20049;-82
2023/09/04 02:59:35;;;;;;;1.80;1.50;;;;;;;-141.50;100.00;63355.56;5042448;28;20376;-81
2023/09/04 03:02:03;;;;;;;3.58;1.70;;;;;;;-141.50;100.00;63355.56;5037177;28;20062;-81
2023/09/04 03:04:33;;;;;;;3.80;2.00;;;;;;;-141.50;100.00;63355.56;5038135;28;20061;-81
2023/09/04 03:07:03;;;;;;;2.20;1.40;;;;;;;-141.50;100.00;63355.56;5021319;28;20698;-81
2023/09/04 03:09:31;;;;;;;3.05;1.77;;;;;;;-141.50;100.00;63355.56;5039860;28;20050;-81
2023/09/04 03:11:59;;;;;;;2.33;1.30;;;;;;;-141.50;100.00;63355.56;5030399;28;20048;-81
2023/09/04 03:14:26;;;;;;;2.15;1.27;;;;;;;-141.50;100.00;63355.56;5056631;28;20048;-79
2023/09/04 03:16:53;;;;;;;2.58;1.45;;;;;;;-141.50;100.00;63355.56;5029765;28;21326;-81
2023/09/04 03:19:20;;;;;;;2.30;1.48;;;;;;;-141.50;100.00;63355.56;5025296;28;20053;-80
2023/09/04 03:21:55;;;;;;;2.55;1.50;;;;;;;-141.50;100.00;63355.56;5034524;28;20041;-81
2023/09/04 03:24:23;;;;;;;2.17;1.45;;;;;;;-141.50;100.00;63355.56;5016035;28;20041;-80
2023/09/04 03:26:52;;;;;;;2.30;1.50;;;;;;;-141.50;100.00;63355.56;5006802;28;20518;-82
2023/09/04 03:29:19;;;;;;;2.42;1.63;;;;;;;-141.50;100.00;63355.56;5012026;28;20060;-79
2023/09/04 03:31:51;;;;;;;4.22;1.80;;;;;;;-141.50;100.00;63355.56;5032985;28;20101;-81
2023/09/04 03:34:20;;;;;;;3.28;1.63;;;;;;;-141.50;100.00;63355.56;5020134;28;20103;-79
2023/09/04 03:36:47;;;;;;;2.65;1.45;;;;;;;-141.50;100.00;63355.56;5005417;28;20041;-80
2023/09/04 03:39:13;;;;;;;1.70;1.10;;;;;;;-141.50;100.00;63355.56;5028704;28;20038;-82
2023/09/04 03:41:46;;;;;;;2.97;1.52;;;;;;;-141.50;100.00;63355.56;5015730;28;20042;-79
2023/09/04 03:44:14;;;;;;;2.78;1.75;;;;;;;-141.50;100.00;63355.56;5019711;28;20174;-81
2023/09/04 03:46:41;;;;;;;3.28;1.60;;;;;;;-141.50;100.00;63355.56;5016077;28;20045;-82
2023/09/04 03:49:12;;;;;;;2.33;1.45;;;;;;;-141.50;100.00;63355.56;5034295;28;20105;-81
2023/09/04 03:51:50;;;;;;;3.72;1.50;;;;;;;-141.50;100.00;63355.56;5035248;28;20103;-81
2023/09/04 03:54:18;;;;;;;5.40;1.85;;;;;;;-141.50;100.00;63355.56;5016110;28;20062;-81
2023/09/04 03:56:45;;;;;;;2.55;1.55;;;;;;;-141.50;100.00;63355.56;5026751;28;20053;-82
2023/09/04 03:59:11;;;;;;;1.42;1.10;;;;;;;-141.50;100.00;63355.56;5025722;28;20109;-81
2023/09/04 04:01:38;;;;;;;1.75;1.30;;;;;;;-141.50;100.00;63355.56;5025917;28;20049;-81
2023/09/04 04:04:11;;;;;;;5.70;1.40;;;;;;;-141.50;100.00;63355.56;5032016;28;20071;-81
2023/09/04 04:06:42;;;;;;;2.50;1.50;;;;;;;-141.50;100.00;63355.56;5028152;28;20042;-81
2023/09/04 04:09:15;;;;;;;2.03;1.30;;;;;;;-141.50;100.00;63355.56;5032081;28;20108;-81
2023/09/04 04:11:43;;;;;;;2.33;1.33;;;;;;;-141.50;100.00;63355.56;5041068;28;20410;-81
2023/09/04 04:14:11;;;;;;;1.73;1.20;;;;;;;-141.50;100.00;63355.56;5029566;28;20148;-80
2023/09/04 04:16:38;;;;;;;2.22;1.20;;;;;;;-141.50;100.00;63355.56;5020916;28;20049;-80
2023/09/04 04:19:05;;;;;;;2.17;1.20;;;;;;;-141.50;100.00;63355.56;5022263;28;20065;-80
2023/09/04 04:21:31;;;;;;;4.75;1.55;;;;;;;-141.50;100.00;63355.56;5016327;28;20439;-81
2023/09/04 04:24:03;;;;;;;2.25;1.40;;;;;;;-141.50;100.00;63355.56;5021144;28;20064;-79
2023/09/04 04:26:31;;;;;;;2.08;1.30;;;;;;;-141.50;100.00;63355.56;5027558;28;20065;-82
2023/09/04 04:28:57;;;;;;;2.85;1.50;;;;;;;-141.50;100.00;63355.56;5033990;28;20053;-83
2023/09/04 04:31:25;;;;;;;3.13;1.40;;;;;;;-141.50;100.00;63355.56;5019234;28;20553;-82
2023/09/04 04:33:52;;;;;;;2.20;1.30;;;;;;;-141.50;100.00;63355.56;5030805;28;20049;-81
2023/09/04 04:36:23;;;;;;;1.88;1.23;;;;;;;-141.50;100.00;63355.56;5031697;28;20114;-81
2023/09/04 04:38:50;;;;;;;4.07;1.67;;;;;;;-141.50;100.00;63355.56;5034270;28;20046;-81
2023/09/04 04:41:21;;;;;;;2.13;1.50;;;;;;;-141.50;100.00;63355.56;5033046;28;20069;-81
2023/09/04 04:43:53;;;;;;;2.22;1.33;;;;;;;-141.50;100.00;63355.56;5036802;28;20053;-80
2023/09/04 04:46:20;;;;;;;3.13;1.50;;;;;;;-141.50;100.00;63355.56;5027792;28;20049;-80
2023/09/04 04:48:48;;;;;;;4.38;1.50;;;;;;;-141.50;100.00;63355.56;5040347;28;20040;-80
2023/09/04 04:51:15;;;;;;;2.17;1.40;;;;;;;-141.50;100.00;63355.56;5050835;28;20045;-80
2023/09/04 04:53:42;;;;;;;2.10;1.23;;;;;;;-141.50;100.00;63355.56;5042753;28;20045;-82
2023/09/04 04:56:09;;;;;;;1.85;1.40;;;;;;;-141.50;100.00;63355.56;5021866;28;20041;-80
2023/09/04 04:58:36;;;;;;;2.20;1.20;;;;;;;-141.50;100.00;63355.56;5031069;28;20068;-81
2023/09/04 05:01:08;;;;;;;3.75;1.55;;;;;;;-141.50;100.00;63355.56;5039763;28;20045;-80
2023/09/04 05:03:37;;;;;;;2.33;1.30;;;;;;;-141.50;100.00;63355.56;5044516;28;20191;-80
2023/09/04 05:06:07;;;;;;;4.80;1.35;;;;;;;-141.50;100.00;63355.56;5044749;28;20048;-81
2023/09/04 05:08:34;;;;;;;3.33;1.80;;;;;;;-141.50;100.00;63355.56;5031773;28;20036;-80
2023/09/04 05:11:03;;;;;;;3.58;1.70;;;;;;;-141.50;100.00;63355.56;5047236;28;20037;-80
2023/09/04 05:13:32;;;;;;;3.00;1.70;;;;;;;-141.50;100.00;63355.56;5045853;28;20059;-79
2023/09/04 05:16:03;;;;;;;3.05;1.80;;;;;;;-141.50;100.00;63355.56;5041296;28;20052;-80
2023/09/04 05:18:34;;;;;;;3.17;1.85;;;;;;;-141.50;100.00;63355.56;5037123;28;20049;-80
2023/09/04 05:21:07;;;;;;;4.60;2.30;;;;;;;-141.50;100.00;63355.56;5047596;28;20045;-79
2023/09/04 05:23:37;;;;;;;6.22;2.97;;;;;;;-141.50;100.00;63355.56;5039658;28;20064;-80
2023/09/04 05:26:06;;;;;;;8.13;3.40;;;;;;;-141.50;100.00;63355.56;4996793;28;20049;-79
2023/09/04 05:28:33;;;;;;;5.85;2.97;;;;;;;-141.50;100.00;63355.56;5039764;28;20056;-80
2023/09/04 05:31:03;;;;;;;5.70;3.38;;;;;;;-141.50;100.00;63355.56;5046867;28;20076;-80
2023/09/04 05:33:31;;;;;;;7.57;3.90;;;;;;;-141.50;100.00;63355.56;5030916;28;20051;-79
2023/09/04 05:35:58;;;;;;;6.82;4.20;;;;;;;-141.50;100.00;63355.56;5014769;28;20103;-79
2023/09/04 05:38:26;;;;;;;7.68;4.30;;;;;;;-141.50;100.00;63355.56;5021008;28;20069;-79
2023/09/04 05:40:57;;;;;;;8.70;4.32;;;;;;;-141.50;100.00;63355.56;5028178;28;20046;-79
2023/09/04 05:43:24;;;;;;;7.40;3.33;;;;;;;-141.50;100.00;63355.56;5027395;28;20038;-79
2023/09/04 05:45:52;;;;;;;7.60;3.75;;;;;;;-141.50;100.00;63355.56;5027255;28;20050;-80
2023/09/04 05:48:19;;;;;;;9.40;4.22;;;;;;;-141.50;100.00;63355.56;5025242;28;20046;-80
2023/09/04 05:50:45;;;;;;;6.82;4.05;;;;;;;-141.50;100.00;63355.56;5015036;28;20073;-80
2023/09/04 05:53:15;;;;;;;7.68;4.82;;;;;;;-141.50;100.00;63355.56;5004927;28;20136;-79
2023/09/04 05:55:42;;;;;;;7.47;4.25;;;;;;;-141.50;100.00;63355.56;5027344;28;20033;-80
2023/09/04 05:58:10;;;;;;;6.10;3.55;;;;;;;-141.50;100.00;63355.56;5048720;28;20055;-80
2023/09/04 06:00:38;;;;;;;7.30;4.05;;;;;;;-141.50;100.00;63355.56;5029833;28;20202;-79
2023/09/04 06:03:05;;;;;;;7.60;4.05;;;;;;;-141.50;100.00;63355.56;5028301;28;20049;-79
2023/09/04 06:05:32;;;;;;;6.03;4.18;;;;;;;-141.50;100.00;63355.56;5025448;28;20048;-80
2023/09/04 06:08:00;;;;;;;8.70;3.83;;;;;;;-141.50;100.00;63355.56;5031818;28;20045;-80
2023/09/04 06:10:27;;;;;;;8.07;5.13;;;;;;;-141.50;100.00;63355.56;5039054;28;20057;-78
2023/09/04 06:12:55;;;;;;;5.45;3.38;;;;;;;-141.50;100.00;63355.56;5039920;28;20036;-79
2023/09/04 06:15:22;;;;;;;6.93;3.65;;;;;;;-141.50;100.00;63355.56;5040739;28;20033;-80
2023/09/04 06:17:51;;;;;;;6.28;3.92;;;;;;;-141.50;100.00;63355.56;5051869;28;20133;-80
2023/09/04 06:20:20;;;;;;;7.10;3.75;;;;;;;-141.50;100.00;63355.56;5039039;28;20068;-79
2023/09/04 06:22:47;;;;;;;5.53;3.47;;;;;;;-141.50;100.00;63355.56;5036746;28;20530;-79
2023/09/04 06:25:17;;;;;;;6.43;3.78;;;;;;;-141.50;100.00;63355.56;5028081;28;20094;-80
2023/09/04 06:27:44;;;;;;;6.03;3.58;;;;;;;-141.50;100.00;63355.56;5045192;28;20402;-78
2023/09/04 06:30:11;;;;;;;6.30;3.63;;;;;;;-141.50;100.00;63355.56;5043614;28;20127;-80
2023/09/04 06:32:52;;;;;;;6.57;3.58;;;;;;;-141.50;100.00;63355.56;5024085;28;20057;-80
2023/09/04 06:35:20;;;;;;;7.03;3.70;;;;;;;-141.50;100.00;63355.56;5053603;28;20505;-79
2023/09/04 06:37:48;;;;;;;6.03;3.25;;;;;;;-141.50;100.00;63355.56;5008919;28;20049;-79
2023/09/04 06:40:16;;;;;;;4.47;3.13;;;;;;;-141.50;100.00;63355.56;5035556;28;20056;-79
2023/09/04 06:42:45;;;;;;;8.75;3.30;;;;;;;-141.50;100.00;63355.56;5046686;28;20143;-79
2023/09/04 06:45:12;;;;;;;7.50;3.22;;;;;;;-141.50;100.00;63355.56;5038978;28;20057;-80
2023/09/04 06:47:40;;;;;;;6.38;3.70;;;;;;;-141.50;100.00;63355.56;5047724;28;20045;-80
2023/09/04 06:50:08;;;;;;;5.88;3.40;;;;;;;-141.50;100.00;63355.56;5029640;28;20048;-80
2023/09/04 06:52:35;;;;;;;6.55;3.15;;;;;;;-141.50;100.00;63355.56;5011531;28;20333;-79
2023/09/04 06:55:03;;;;;;;6.32;3.00;;;;;;;-141.50;100.00;63355.56;5043473;28;20049;-80
2023/09/04 06:57:30;;;;;;;5.68;2.67;;;;;;;-141.50;100.00;63355.56;5032265;28;20124;-79
2023/09/04 07:00:06;;;;;;;4.05;2.42;;;;;;;-141.50;100.00;63355.56;5042601;28;20041;-79
2023/09/04 07:02:52;;;;;;;6.07;2.70;;;;;;;-141.50;100.00;63355.56;5037876;28;20041;-80
2023/09/04 07:05:30;;;;;;;5.55;2.53;;;;;;;-141.50;100.00;63355.56;5035349;28;20761;-79
2023/09/04 07:08:00;;;;;;;4.57;2.50;;;;;;;-141.50;100.00;63355.56;5025246;28;20235;-79
2023/09/04 07:10:32;;;;;;;3.95;2.33;;;;;;;-141.50;100.00;63355.56;5052050;28;20511;-79
2023/09/04 07:13:04;;;;;;;3.85;2.22;;;;;;;-141.50;100.00;63355.56;5017910;28;20046;-79
2023/09/04 07:15:31;;;;;;;3.80;2.20;;;;;;;-141.50;100.00;63355.56;5035309;28;20045;-79
2023/09/04 07:17:59;;;;;;;5.38;2.13;;;;;;;-141.50;100.00;63355.56;5014797;28;20045;-78
2023/09/04 07:20:27;;;;;;;5.75;2.20;;;;;;;-141.50;100.00;63355.56;5028492;28;20045;-79
2023/09/04 07:22:54;;;;;;;3.40;1.80;;;;;;;-141.50;100.00;63355.56;5052049;28;20099;-79
2023/09/04 07:25:40;;;;;;;2.75;1.70;;;;;;;-141.50;100.00;63355.56;5032571;28;20835;-80
2023/09/04 07:28:07;;;;;;;3.58;1.73;;;;;;;-141.50;100.00;63355.56;5054727;28;20040;-79
2023/09/04 07:31:10;;;;;;;7.35;1.92;;;;;;;-141.50;100.00;63355.56;5037319;28;20052;-80
2023/09/04 07:33:40;;;;;;;3.95;1.90;;;;;;;-141.50;100.00;63355.56;5031710;28;20048;-79
2023/09/04 07:36:27;;;;;;;2.28;1.60;;;;;;;-141.50;100.00;63355.56;5016294;28;20053;-79
2023/09/04 07:38:54;;;;;;;2.38;1.70;;;;;;;-141.50;100.00;63355.56;5050236;28;20441;-79
2023/09/04 07:41:40;;;;;;;2.60;1.65;;;;;;;-141.50;100.00;63355.56;5009278;28;20049;-79
2023/09/04 07:44:17;;;;;;;4.03;1.80;;;;;;;-141.50;100.00;63355.56;5034284;28;20290;-79
2023/09/04 07:47:04;;;;;;;3.78;1.83;;;;;;;-141.50;100.00;63355.56;5056313;28;20118;-78
2023/09/04 07:49:34;;;;;;;4.88;1.50;;;;;;;-141.50;100.00;63355.56;5030011;28;20040;-79
2023/09/04 07:52:01;;;;;;;3.42;1.70;;;;;;;-141.50;100.00;63355.56;5061749;28;20045;-79
2023/09/04 07:54:28;;;;;;;3.35;1.30;;;;;;;-141.50;100.00;63355.56;5028862;28;20044;-79
2023/09/04 07:56:55;;;;;;;3.50;1.58;;;;;;;-141.50;100.00;63355.56;5015582;28;20307;-78
2023/09/04 07:59:32;;;;;;;2.53;1.27;;;;;;;-141.50;100.00;63355.56;5030474;28;20060;-79
2023/09/04 08:02:18;;;;;;;3.38;1.30;;;;;;;-141.50;100.00;63355.56;5051771;28;20278;-78
2023/09/04 08:05:04;;;;;;;1.83;1.15;;;;;;;-141.50;100.00;63355.56;5030090;28;20041;-78
2023/09/04 08:07:40;;;;;;;2.10;1.40;;;;;;;-141.50;100.00;63355.56;5037566;28;20215;-78
2023/09/04 08:10:14;;;;;;;2.05;1.30;;;;;;;-141.50;100.00;63355.56;5041849;28;20570;-80
2023/09/04 08:12:41;;;;;;;2.13;1.20;;;;;;;-141.50;100.00;63355.56;5030036;28;20088;-80
2023/09/04 08:15:10;;;;;;;1.85;1.20;;;;;;;-141.50;100.00;63355.56;5038071;28;20089;-78
2023/09/04 08:17:38;;;;;;;2.90;1.50;;;;;;;-141.50;100.00;63355.56;5019541;28;20048;-82
2023/09/04 08:20:06;;;;;;;1.73;1.02;;;;;;;-141.50;100.00;63355.56;5051146;28;20574;-79
2023/09/04 08:22:32;;;;;;;1.50;1.02;;;;;;;-141.50;100.00;63355.56;5047889;28;20048;-79
2023/09/04 08:25:19;;;;;;;2.95;1.35;;;;;;;-141.50;100.00;63355.56;5016014;28;20057;-79
2023/09/04 08:28:07;;;;;;;1.63;0.90;;;;;;;-141.50;100.00;63355.56;5059135;28;20049;-80
2023/09/04 08:30:53;;;;;;;0.88;0.75;;;;;;;-141.50;100.00;63355.56;5034837;28;20056;-79
2023/09/04 08:33:21;;;;;;;2.35;0.80;;;;;;;-141.50;100.00;63355.56;5027924;28;20052;-79
2023/09/04 08:36:01;;;;;;;2.00;1.15;;;;;;;-141.50;100.00;63355.56;5037049;28;20072;-78
2023/09/04 08:38:36;;;;;;;2.67;1.10;;;;;;;-141.50;100.00;63355.56;5046147;28;20842;-79
2023/09/04 08:41:16;;;;;;;3.35;0.98;;;;;;;-141.50;100.00;63355.56;5037138;28;20278;-78
2023/09/04 08:43:49;;;;;;;1.98;0.90;;;;;;;-141.50;100.00;63355.56;5033772;28;20083;-79
2023/09/04 08:46:18;;;;;;;2.08;1.05;;;;;;;-141.50;100.00;63355.56;5044020;28;20052;-79
2023/09/04 08:48:46;;;;;;;2.35;0.70;;;;;;;-141.50;100.00;63355.56;5020448;28;20041;-79
2023/09/04 08:51:16;;;;;;;1.75;1.00;;;;;;;-141.50;100.00;63355.56;5045309;28;20048;-80
2023/09/04 08:53:49;;;;;;;1.23;0.80;;;;;;;-141.50;100.00;63355.56;5028102;28;20157;-80
2023/09/04 08:56:16;;;;;;;1.75;0.90;;;;;;;-141.50;100.00;63355.56;5028673;28;20084;-79
2023/09/04 08:58:44;;;;;;;1.20;0.90;;;;;;;-141.50;100.00;63355.56;5046234;28;20038;-79
2023/09/04 09:01:14;;;;;;;1.23;0.85;;;;;;;-141.50;100.00;63355.56;5028179;28;20068;-78
2023/09/04 09:03:42;;;;;;;1.35;0.75;;;;;;;-141.50;100.00;63355.56;5047795;28;20052;-79
2023/09/04 09:06:10;;;;;;;1.45;0.95;;;;;;;-141.50;100.00;63355.56;5055813;28;20075;-79
2023/09/04 09:08:38;;;;;;;1.50;0.80;;;;;;;-141.50;100.00;63355.56;5044569;28;20072;-78
2023/09/04 09:11:05;;;;;;;1.33;0.98;;;;;;;-141.50;100.00;63355.56;5041209;28;20522;-80
2023/09/04 09:13:32;;;;;;;1.48;0.75;;;;;;;-141.50;100.00;63355.56;5023327;28;20480;-78
2023/09/04 09:15:59;;;;;;;1.30;0.85;;;;;;;-141.50;100.00;63355.56;5032405;28;20045;-79
2023/09/04 09:18:37;;;;;;;1.35;0.60;;;;;;;-141.50;100.00;63355.56;5035679;28;20045;-79
2023/09/04 09:21:29;;;;;;;1.55;0.77;;;;;;;-141.50;100.00;63355.56;5026949;28;20054;-80
2023/09/04 09:24:09;;;;;;;1.77;1.00;;;;;;;-141.50;100.00;63355.56;5057232;28;20082;-80
2023/09/04 09:26:39;;;;;;;2.30;0.80;;;;;;;-141.50;100.00;63355.56;5036609;28;20067;-79
2023/09/04 09:29:08;;;;;;;1.20;0.70;;;;;;;-141.50;100.00;63355.56;5002851;28;21543;-79
2023/09/04 09:31:36;;;;;;;1.08;0.70;;;;;;;-141.50;100.00;63355.56;5037902;28;20509;-79
2023/09/04 09:34:04;;;;;;;1.73;0.90;;;;;;;-141.50;100.00;63355.56;5054085;28;20053;-80
2023/09/04 09:36:31;;;;;;;1.42;0.80;;;;;;;-141.50;100.00;63355.56;5014837;28;20059;-79
2023/09/04 09:38:58;;;;;;;1.70;0.93;;;;;;;-141.50;100.00;63355.56;5034512;28;20049;-78
2023/09/04 09:41:28;;;;;;;1.55;0.73;;;;;;;-141.50;100.00;63355.56;5055384;28;20044;-80
2023/09/04 09:43:55;;;;;;;1.73;0.85;;;;;;;-141.50;100.00;63355.56;5019516;28;20045;-79
2023/09/04 09:46:22;;;;;;;2.95;0.90;;;;;;;-141.50;100.00;63355.56;5032904;28;20107;-78
2023/09/04 09:48:49;;;;;;;2.05;0.90;;;;;;;-141.50;100.00;63355.56;5038146;28;20087;-80
2023/09/04 09:51:16;;;;;;;1.48;0.80;;;;;;;-141.50;100.00;63355.56;5042542;28;20068;-79
2023/09/04 09:53:48;;;;;;;1.42;0.85;;;;;;;-141.50;100.00;63355.56;5041261;28;20040;-79
2023/09/04 09:56:18;;;;;;;1.45;0.80;;;;;;;-141.50;100.00;63355.56;5040225;28;20045;-79
2023/09/04 09:58:51;;;;;;;2.13;0.80;;;;;;;-141.50;100.00;63355.56;5036158;28;20061;-78
2023/09/04 10:01:18;;;;;;;1.02;0.73;;;;;;;-141.50;100.00;63355.56;5020920;28;20040;-77
2023/09/04 10:03:47;;;;;;;1.80;1.00;;;;;;;-141.50;100.00;63355.56;5046908;28;20067;-78
2023/09/04 10:06:18;;;;;;;1.85;0.70;;;;;;;-141.50;100.00;63355.56;5032235;28;20144;-78
2023/09/04 10:08:49;;;;;;;0.80;0.60;;;;;;;-141.50;100.00;63355.56;5047353;28;20041;-79
2023/09/04 10:11:16;;;;;;;1.67;0.73;;;;;;;-141.50;100.00;63355.56;5049571;28;20049;-78
2023/09/04 10:14:10;;;;;;;1.73;1.05;;;;;;;-141.50;100.00;63355.56;5037306;28;20141;-78
2023/09/04 10:16:42;;;;;;;2.30;0.70;;;;;;;-141.50;100.00;63355.56;5022749;28;20056;-77
2023/09/04 10:19:13;;;;;;;1.70;0.60;;;;;;;-141.50;100.00;63355.56;5020574;28;21391;-77
2023/09/04 10:21:46;;;;;;;1.02;0.70;;;;;;;-141.50;100.00;63355.56;4983537;28;20432;-77
2023/09/04 10:24:15;;;;;;;1.13;0.63;;;;;;;-141.50;100.00;63355.56;5029446;28;20049;-78
2023/09/04 10:26:58;;;;;;;1.55;0.77;;;;;;;-141.50;100.00;63355.56;5030537;28;20769;-78
2023/09/04 10:29:28;;;;;;;2.15;0.60;;;;;;;-141.50;100.00;63355.56;5024957;28;20046;-78
2023/09/04 10:31:56;;;;;;;1.10;0.65;;;;;;;-141.50;100.00;63355.56;5029374;28;20102;-78
2023/09/04 10:34:26;;;;;;;0.82;0.52;;;;;;;-141.50;100.00;63355.56;5032121;28;20065;-79
2023/09/04 10:36:53;;;;;;;1.13;0.70;;;;;;;-141.50;100.00;63355.56;5009761;28;20041;-78
2023/09/04 10:39:21;;;;;;;0.60;0.55;;;;;;;-141.50;100.00;63355.56;5027309;28;20105;-78
2023/09/04 10:41:48;;;;;;;1.23;0.60;;;;;;;-141.50;100.00;63355.56;5013081;28;20500;-78
2023/09/04 10:44:44;;;;;;;1.23;0.70;;;;;;;-141.50;100.00;63355.56;5024779;28;20424;-78
2023/09/04 10:47:13;;;;;;;1.08;0.60;;;;;;;-141.50;100.00;63355.56;5048282;28;20598;-78
2023/09/04 10:49:41;;;;;;;1.42;0.70;;;;;;;-141.50;100.00;63355.56;5049183;28;20054;-78
2023/09/04 10:52:09;;;;;;;1.27;0.70;;;;;;;-141.50;100.00;63355.56;5042907;28;20046;-77
2023/09/04 10:54:37;;;;;;;2.47;0.80;;;;;;;-141.50;100.00;63355.56;5049592;28;20071;-79
2023/09/04 10:57:10;;;;;;;1.13;0.75;;;;;;;-141.50;100.00;63355.56;5044812;28;20051;-79
2023/09/04 10:59:53;;;;;;;2.63;0.60;;;;;;;-141.50;100.00;63355.56;5055771;28;20055;-78
2023/09/04 11:02:27;;;;;;;2.25;0.70;;;;;;;-141.50;100.00;63355.56;5050357;28;20288;-78
2023/09/04 11:04:55;;;;;;;1.40;0.90;;;;;;;-141.50;100.00;63355.56;5048535;28;20053;-79
2023/09/04 11:07:34;;;;;;;0.95;0.65;;;;;;;-141.50;100.00;63355.56;5051598;28;20049;-77
2023/09/04 11:10:17;;;;;;;1.52;0.68;;;;;;;-141.50;100.00;63355.56;5038512;28;20049;-78
2023/09/04 11:12:45;;;;;;;1.23;0.88;;;;;;;-141.50;100.00;63355.56;5046599;28;21662;-78
2023/09/04 11:15:15;;;;;;;1.50;0.75;;;;;;;-141.50;100.00;63355.56;5052316;28;20060;-78
2023/09/04 11:17:48;;;;;;;2.05;0.80;;;;;;;-141.50;100.00;63355.56;5027068;28;20136;-77
2023/09/04 11:20:17;;;;;;;1.10;0.73;;;;;;;-141.50;100.00;63355.56;5045027;28;20077;-78
2023/09/04 11:22:49;;;;;;;1.05;0.82;;;;;;;-141.50;100.00;63355.56;5054177;28;20241;-79
2023/09/04 11:25:17;;;;;;;1.45;0.68;;;;;;;-141.50;100.00;63355.56;5059629;28;20047;-79